sensor_id;sensor_type;location;lat;lon;timestamp;P1;durP1;ratioP1;P2;durP2;ratioP2
36653;SDS011;22650;49.350;20.898;2023-04-06T00:00:04;13.27;;;5.32;;
36653;SDS011;22650;49.350;20.898;2023-04-06T00:02:41;12.45;;;4.43;;
36653;SDS011;22650;49.350;20.898;2023-04-06T00:05:16;10.45;;;3.67;;
36653;SDS011;22650;49.350;20.898;2023-04-06T00:07:49;9.32;;;3.90;;
36653;SDS011;22650;49.350;20.898;2023-04-06T00:10:24;12.18;;;4.18;;
36653;SDS011;22650;49.350;20.898;2023-04-06T00:12:58;9.00;;;4.00;;
36653;SDS011;22650;49.350;20.898;2023-04-06T00:15:32;10.95;;;3.90;;
36653;SDS011;22650;49.350;20.898;2023-04-06T00:18:06;8.95;;;3.97;;
36653;SDS011;22650;49.350;20.898;2023-04-06T00:20:41;9.82;;;4.15;;
36653;SDS011;22650;49.350;20.898;2023-04-06T00:23:14;8.50;;;3.95;;
36653;SDS011;22650;49.350;20.898;2023-04-06T00:25:48;10.32;;;4.00;;
36653;SDS011;22650;49.350;20.898;2023-04-06T00:28:22;9.27;;;4.10;;
36653;SDS011;22650;49.350;20.898;2023-04-06T00:30:57;12.80;;;4.55;;
36653;SDS011;22650;49.350;20.898;2023-04-06T00:33:32;6.20;;;3.53;;
36653;SDS011;22650;49.350;20.898;2023-04-06T00:36:07;6.80;;;3.47;;
36653;SDS011;22650;49.350;20.898;2023-04-06T00:38:41;9.20;;;3.88;;
36653;SDS011;22650;49.350;20.898;2023-04-06T00:41:14;8.15;;;3.75;;
36653;SDS011;22650;49.350;20.898;2023-04-06T00:43:48;9.27;;;3.90;;
36653;SDS011;22650;49.350;20.898;2023-04-06T00:46:23;8.02;;;3.72;;
36653;SDS011;22650;49.350;20.898;2023-04-06T00:48:57;11.95;;;4.75;;
36653;SDS011;22650;49.350;20.898;2023-04-06T00:51:32;12.77;;;4.82;;
36653;SDS011;22650;49.350;20.898;2023-04-06T00:54:06;14.75;;;5.20;;
36653;SDS011;22650;49.350;20.898;2023-04-06T00:56:41;9.88;;;4.65;;
36653;SDS011;22650;49.350;20.898;2023-04-06T00:59:15;9.32;;;4.07;;
36653;SDS011;22650;49.350;20.898;2023-04-06T01:01:49;10.45;;;4.22;;
36653;SDS011;22650;49.350;20.898;2023-04-06T01:04:38;16.23;;;5.40;;
36653;SDS011;22650;49.350;20.898;2023-04-06T01:07:18;10.98;;;4.45;;
36653;SDS011;22650;49.350;20.898;2023-04-06T01:10:06;11.55;;;5.43;;
36653;SDS011;22650;49.350;20.898;2023-04-06T01:12:41;9.05;;;4.32;;
36653;SDS011;22650;49.350;20.898;2023-04-06T01:15:24;9.63;;;4.00;;
36653;SDS011;22650;49.350;20.898;2023-04-06T01:17:59;9.35;;;4.28;;
36653;SDS011;22650;49.350;20.898;2023-04-06T01:20:34;11.93;;;4.50;;
36653;SDS011;22650;49.350;20.898;2023-04-06T01:23:09;7.28;;;4.28;;
36653;SDS011;22650;49.350;20.898;2023-04-06T01:25:49;9.38;;;4.20;;
36653;SDS011;22650;49.350;20.898;2023-04-06T01:28:23;12.00;;;4.40;;
36653;SDS011;22650;49.350;20.898;2023-04-06T01:31:04;7.72;;;4.72;;
36653;SDS011;22650;49.350;20.898;2023-04-06T01:33:52;11.52;;;4.63;;
36653;SDS011;22650;49.350;20.898;2023-04-06T01:36:29;9.02;;;4.57;;
36653;SDS011;22650;49.350;20.898;2023-04-06T01:39:14;13.05;;;5.55;;
36653;SDS011;22650;49.350;20.898;2023-04-06T01:41:48;10.15;;;4.80;;
36653;SDS011;22650;49.350;20.898;2023-04-06T01:44:24;12.90;;;4.82;;
36653;SDS011;22650;49.350;20.898;2023-04-06T01:47:09;10.05;;;4.38;;
36653;SDS011;22650;49.350;20.898;2023-04-06T01:49:42;13.32;;;5.13;;
36653;SDS011;22650;49.350;20.898;2023-04-06T01:52:16;11.50;;;4.97;;
36653;SDS011;22650;49.350;20.898;2023-04-06T01:54:57;16.10;;;6.03;;
36653;SDS011;22650;49.350;20.898;2023-04-06T01:58:03;12.38;;;5.50;;
36653;SDS011;22650;49.350;20.898;2023-04-06T02:00:41;10.35;;;5.07;;
36653;SDS011;22650;49.350;20.898;2023-04-06T02:03:15;9.48;;;4.53;;
36653;SDS011;22650;49.350;20.898;2023-04-06T02:05:50;10.80;;;5.53;;
36653;SDS011;22650;49.350;20.898;2023-04-06T02:08:30;10.50;;;5.15;;
36653;SDS011;22650;49.350;20.898;2023-04-06T02:11:05;12.30;;;5.32;;
36653;SDS011;22650;49.350;20.898;2023-04-06T02:13:44;16.13;;;5.00;;
36653;SDS011;22650;49.350;20.898;2023-04-06T02:16:19;18.42;;;7.05;;
36653;SDS011;22650;49.350;20.898;2023-04-06T02:18:53;18.40;;;6.63;;
36653;SDS011;22650;49.350;20.898;2023-04-06T02:21:27;18.50;;;6.60;;
36653;SDS011;22650;49.350;20.898;2023-04-06T02:24:01;17.60;;;6.93;;
36653;SDS011;22650;49.350;20.898;2023-04-06T02:26:36;16.55;;;5.97;;
36653;SDS011;22650;49.350;20.898;2023-04-06T02:29:10;14.20;;;6.07;;
36653;SDS011;22650;49.350;20.898;2023-04-06T02:31:43;14.82;;;5.47;;
36653;SDS011;22650;49.350;20.898;2023-04-06T02:34:17;18.08;;;5.38;;
36653;SDS011;22650;49.350;20.898;2023-04-06T02:36:54;11.13;;;5.63;;
36653;SDS011;22650;49.350;20.898;2023-04-06T02:39:28;11.70;;;5.20;;
36653;SDS011;22650;49.350;20.898;2023-04-06T02:42:04;12.70;;;6.00;;
36653;SDS011;22650;49.350;20.898;2023-04-06T02:44:37;16.13;;;5.40;;
36653;SDS011;22650;49.350;20.898;2023-04-06T02:47:12;12.60;;;6.28;;
36653;SDS011;22650;49.350;20.898;2023-04-06T02:49:51;15.00;;;5.63;;
36653;SDS011;22650;49.350;20.898;2023-04-06T02:52:24;13.57;;;6.35;;
36653;SDS011;22650;49.350;20.898;2023-04-06T02:54:58;15.27;;;5.85;;
36653;SDS011;22650;49.350;20.898;2023-04-06T02:57:36;10.85;;;5.93;;
36653;SDS011;22650;49.350;20.898;2023-04-06T03:00:10;14.07;;;5.35;;
36653;SDS011;22650;49.350;20.898;2023-04-06T03:02:45;12.55;;;5.68;;
36653;SDS011;22650;49.350;20.898;2023-04-06T03:05:21;12.52;;;5.90;;
36653;SDS011;22650;49.350;20.898;2023-04-06T03:07:55;13.20;;;5.32;;
36653;SDS011;22650;49.350;20.898;2023-04-06T03:10:39;10.48;;;5.22;;
36653;SDS011;22650;49.350;20.898;2023-04-06T03:13:14;13.43;;;6.15;;
36653;SDS011;22650;49.350;20.898;2023-04-06T03:16:00;12.45;;;5.68;;
36653;SDS011;22650;49.350;20.898;2023-04-06T03:18:34;11.68;;;4.80;;
36653;SDS011;22650;49.350;20.898;2023-04-06T03:21:07;14.38;;;5.90;;
36653;SDS011;22650;49.350;20.898;2023-04-06T03:26:23;7.43;;;4.05;;
36653;SDS011;22650;49.350;20.898;2023-04-06T03:28:58;11.38;;;4.63;;
36653;SDS011;22650;49.350;20.898;2023-04-06T03:31:35;12.32;;;4.82;;
36653;SDS011;22650;49.350;20.898;2023-04-06T03:34:25;14.98;;;5.32;;
36653;SDS011;22650;49.350;20.898;2023-04-06T03:36:58;12.55;;;6.53;;
36653;SDS011;22650;49.350;20.898;2023-04-06T03:39:45;13.30;;;5.70;;
36653;SDS011;22650;49.350;20.898;2023-04-06T03:42:24;10.40;;;5.45;;
36653;SDS011;22650;49.350;20.898;2023-04-06T03:45:06;10.93;;;5.13;;
36653;SDS011;22650;49.350;20.898;2023-04-06T03:47:47;14.45;;;6.45;;
36653;SDS011;22650;49.350;20.898;2023-04-06T03:50:22;12.23;;;6.13;;
36653;SDS011;22650;49.350;20.898;2023-04-06T03:52:55;13.90;;;4.82;;
36653;SDS011;22650;49.350;20.898;2023-04-06T03:55:29;16.20;;;5.57;;
36653;SDS011;22650;49.350;20.898;2023-04-06T03:58:03;9.10;;;4.78;;
36653;SDS011;22650;49.350;20.898;2023-04-06T04:00:38;12.50;;;5.63;;
36653;SDS011;22650;49.350;20.898;2023-04-06T04:03:12;9.57;;;5.18;;
36653;SDS011;22650;49.350;20.898;2023-04-06T04:05:46;9.75;;;4.85;;
36653;SDS011;22650;49.350;20.898;2023-04-06T04:08:20;13.27;;;5.38;;
36653;SDS011;22650;49.350;20.898;2023-04-06T04:10:53;14.00;;;5.97;;
36653;SDS011;22650;49.350;20.898;2023-04-06T04:13:27;15.18;;;5.70;;
36653;SDS011;22650;49.350;20.898;2023-04-06T04:16:02;11.60;;;5.70;;
36653;SDS011;22650;49.350;20.898;2023-04-06T04:18:36;10.50;;;5.90;;
36653;SDS011;22650;49.350;20.898;2023-04-06T04:21:10;12.05;;;5.22;;
36653;SDS011;22650;49.350;20.898;2023-04-06T04:23:44;15.05;;;6.07;;
36653;SDS011;22650;49.350;20.898;2023-04-06T04:26:17;15.23;;;6.82;;
36653;SDS011;22650;49.350;20.898;2023-04-06T04:28:51;13.63;;;6.88;;
36653;SDS011;22650;49.350;20.898;2023-04-06T04:31:26;13.05;;;6.13;;
36653;SDS011;22650;49.350;20.898;2023-04-06T04:34:04;18.08;;;7.22;;
36653;SDS011;22650;49.350;20.898;2023-04-06T04:36:39;15.50;;;6.40;;
36653;SDS011;22650;49.350;20.898;2023-04-06T04:39:17;16.95;;;7.75;;
36653;SDS011;22650;49.350;20.898;2023-04-06T04:41:59;17.98;;;7.45;;
36653;SDS011;22650;49.350;20.898;2023-04-06T04:44:35;15.70;;;8.10;;
36653;SDS011;22650;49.350;20.898;2023-04-06T04:47:10;15.40;;;6.53;;
36653;SDS011;22650;49.350;20.898;2023-04-06T04:49:48;15.07;;;7.28;;
36653;SDS011;22650;49.350;20.898;2023-04-06T04:52:26;18.85;;;7.43;;
36653;SDS011;22650;49.350;20.898;2023-04-06T04:55:32;13.23;;;6.85;;
36653;SDS011;22650;49.350;20.898;2023-04-06T04:58:06;16.85;;;7.20;;
36653;SDS011;22650;49.350;20.898;2023-04-06T05:00:53;14.70;;;6.82;;
36653;SDS011;22650;49.350;20.898;2023-04-06T05:03:29;15.20;;;7.68;;
36653;SDS011;22650;49.350;20.898;2023-04-06T05:06:06;18.70;;;7.28;;
36653;SDS011;22650;49.350;20.898;2023-04-06T05:08:44;20.00;;;6.90;;
36653;SDS011;22650;49.350;20.898;2023-04-06T05:11:19;21.02;;;7.78;;
36653;SDS011;22650;49.350;20.898;2023-04-06T05:13:59;15.32;;;7.13;;
36653;SDS011;22650;49.350;20.898;2023-04-06T05:16:33;16.20;;;7.80;;
36653;SDS011;22650;49.350;20.898;2023-04-06T05:19:09;10.55;;;6.78;;
36653;SDS011;22650;49.350;20.898;2023-04-06T05:21:47;13.02;;;6.13;;
36653;SDS011;22650;49.350;20.898;2023-04-06T05:24:21;15.25;;;7.20;;
36653;SDS011;22650;49.350;20.898;2023-04-06T05:26:54;14.48;;;6.95;;
36653;SDS011;22650;49.350;20.898;2023-04-06T05:29:28;15.48;;;6.82;;
36653;SDS011;22650;49.350;20.898;2023-04-06T05:32:02;13.77;;;6.25;;
36653;SDS011;22650;49.350;20.898;2023-04-06T05:34:39;10.38;;;6.20;;
36653;SDS011;22650;49.350;20.898;2023-04-06T05:37:13;13.35;;;5.80;;
36653;SDS011;22650;49.350;20.898;2023-04-06T05:39:47;16.15;;;5.93;;
36653;SDS011;22650;49.350;20.898;2023-04-06T05:42:21;13.32;;;5.88;;
36653;SDS011;22650;49.350;20.898;2023-04-06T05:44:59;11.20;;;4.85;;
36653;SDS011;22650;49.350;20.898;2023-04-06T05:47:32;12.25;;;5.80;;
36653;SDS011;22650;49.350;20.898;2023-04-06T05:50:17;19.58;;;6.30;;
36653;SDS011;22650;49.350;20.898;2023-04-06T05:52:51;17.92;;;5.95;;
36653;SDS011;22650;49.350;20.898;2023-04-06T05:55:26;14.68;;;6.50;;
36653;SDS011;22650;49.350;20.898;2023-04-06T05:58:13;11.70;;;6.07;;
36653;SDS011;22650;49.350;20.898;2023-04-06T06:00:47;11.48;;;5.13;;
36653;SDS011;22650;49.350;20.898;2023-04-06T06:03:23;10.90;;;5.15;;
36653;SDS011;22650;49.350;20.898;2023-04-06T06:06:01;9.98;;;5.03;;
36653;SDS011;22650;49.350;20.898;2023-04-06T06:09:08;13.77;;;5.13;;
36653;SDS011;22650;49.350;20.898;2023-04-06T06:11:48;11.43;;;5.40;;
36653;SDS011;22650;49.350;20.898;2023-04-06T06:14:25;10.45;;;4.80;;
36653;SDS011;22650;49.350;20.898;2023-04-06T06:17:00;9.85;;;5.40;;
36653;SDS011;22650;49.350;20.898;2023-04-06T06:19:33;10.38;;;5.43;;
36653;SDS011;22650;49.350;20.898;2023-04-06T06:22:12;13.13;;;5.60;;
36653;SDS011;22650;49.350;20.898;2023-04-06T06:24:49;13.63;;;6.05;;
36653;SDS011;22650;49.350;20.898;2023-04-06T06:27:24;10.98;;;5.53;;
36653;SDS011;22650;49.350;20.898;2023-04-06T06:29:58;13.60;;;5.85;;
36653;SDS011;22650;49.350;20.898;2023-04-06T06:32:35;8.52;;;4.35;;
36653;SDS011;22650;49.350;20.898;2023-04-06T06:35:08;10.05;;;5.03;;
36653;SDS011;22650;49.350;20.898;2023-04-06T06:37:44;10.18;;;5.30;;
36653;SDS011;22650;49.350;20.898;2023-04-06T06:40:21;10.50;;;5.85;;
36653;SDS011;22650;49.350;20.898;2023-04-06T06:42:57;13.60;;;5.95;;
36653;SDS011;22650;49.350;20.898;2023-04-06T06:46:09;13.88;;;6.18;;
36653;SDS011;22650;49.350;20.898;2023-04-06T06:48:44;11.50;;;5.13;;
36653;SDS011;22650;49.350;20.898;2023-04-06T06:51:18;16.55;;;7.40;;
36653;SDS011;22650;49.350;20.898;2023-04-06T06:53:53;11.00;;;6.15;;
36653;SDS011;22650;49.350;20.898;2023-04-06T06:56:27;12.20;;;6.30;;
36653;SDS011;22650;49.350;20.898;2023-04-06T06:59:00;22.88;;;9.30;;
36653;SDS011;22650;49.350;20.898;2023-04-06T07:01:34;16.63;;;6.05;;
36653;SDS011;22650;49.350;20.898;2023-04-06T07:04:08;11.73;;;5.60;;
36653;SDS011;22650;49.350;20.898;2023-04-06T07:06:42;13.45;;;4.97;;
36653;SDS011;22650;49.350;20.898;2023-04-06T07:09:18;16.88;;;7.78;;
36653;SDS011;22650;49.350;20.898;2023-04-06T07:11:51;10.27;;;5.18;;
36653;SDS011;22650;49.350;20.898;2023-04-06T07:14:25;15.13;;;5.95;;
36653;SDS011;22650;49.350;20.898;2023-04-06T07:16:59;9.02;;;4.65;;
36653;SDS011;22650;49.350;20.898;2023-04-06T07:19:33;15.05;;;4.65;;
36653;SDS011;22650;49.350;20.898;2023-04-06T07:22:06;14.55;;;4.95;;
36653;SDS011;22650;49.350;20.898;2023-04-06T07:24:41;10.02;;;5.38;;
36653;SDS011;22650;49.350;20.898;2023-04-06T07:27:15;14.63;;;6.20;;
36653;SDS011;22650;49.350;20.898;2023-04-06T07:29:50;12.50;;;5.18;;
36653;SDS011;22650;49.350;20.898;2023-04-06T07:32:24;11.07;;;4.75;;
36653;SDS011;22650;49.350;20.898;2023-04-06T07:34:58;8.80;;;4.55;;
36653;SDS011;22650;49.350;20.898;2023-04-06T07:37:31;11.95;;;4.95;;
36653;SDS011;22650;49.350;20.898;2023-04-06T07:40:08;8.70;;;4.88;;
36653;SDS011;22650;49.350;20.898;2023-04-06T07:42:42;11.38;;;5.40;;
36653;SDS011;22650;49.350;20.898;2023-04-06T07:45:16;7.93;;;4.82;;
36653;SDS011;22650;49.350;20.898;2023-04-06T07:47:50;11.23;;;5.18;;
36653;SDS011;22650;49.350;20.898;2023-04-06T07:50:24;11.43;;;4.72;;
36653;SDS011;22650;49.350;20.898;2023-04-06T07:52:58;10.57;;;4.93;;
36653;SDS011;22650;49.350;20.898;2023-04-06T07:55:35;10.10;;;5.03;;
36653;SDS011;22650;49.350;20.898;2023-04-06T07:58:09;9.02;;;4.50;;
36653;SDS011;22650;49.350;20.898;2023-04-06T08:00:43;9.00;;;4.65;;
36653;SDS011;22650;49.350;20.898;2023-04-06T08:03:16;8.25;;;5.07;;
36653;SDS011;22650;49.350;20.898;2023-04-06T08:05:52;10.43;;;5.70;;
36653;SDS011;22650;49.350;20.898;2023-04-06T08:08:26;10.80;;;4.93;;
36653;SDS011;22650;49.350;20.898;2023-04-06T08:11:04;10.25;;;5.20;;
36653;SDS011;22650;49.350;20.898;2023-04-06T08:13:38;9.63;;;4.97;;
36653;SDS011;22650;49.350;20.898;2023-04-06T08:16:11;11.23;;;5.10;;
36653;SDS011;22650;49.350;20.898;2023-04-06T08:18:46;9.82;;;5.10;;
36653;SDS011;22650;49.350;20.898;2023-04-06T08:21:19;11.95;;;5.15;;
36653;SDS011;22650;49.350;20.898;2023-04-06T08:23:53;10.52;;;5.65;;
36653;SDS011;22650;49.350;20.898;2023-04-06T08:26:28;11.60;;;4.68;;
36653;SDS011;22650;49.350;20.898;2023-04-06T08:29:04;12.70;;;4.68;;
36653;SDS011;22650;49.350;20.898;2023-04-06T08:31:39;9.48;;;5.03;;
36653;SDS011;22650;49.350;20.898;2023-04-06T08:34:12;10.25;;;5.47;;
36653;SDS011;22650;49.350;20.898;2023-04-06T08:36:47;12.38;;;5.13;;
36653;SDS011;22650;49.350;20.898;2023-04-06T08:39:20;12.38;;;5.05;;
36653;SDS011;22650;49.350;20.898;2023-04-06T08:41:58;10.20;;;5.28;;
36653;SDS011;22650;49.350;20.898;2023-04-06T08:44:34;9.10;;;5.25;;
36653;SDS011;22650;49.350;20.898;2023-04-06T08:47:09;14.10;;;5.40;;
36653;SDS011;22650;49.350;20.898;2023-04-06T08:49:43;8.65;;;5.07;;
36653;SDS011;22650;49.350;20.898;2023-04-06T08:52:18;11.90;;;5.82;;
36653;SDS011;22650;49.350;20.898;2023-04-06T08:54:52;12.07;;;4.38;;
36653;SDS011;22650;49.350;20.898;2023-04-06T08:57:27;11.48;;;4.93;;
36653;SDS011;22650;49.350;20.898;2023-04-06T09:00:02;10.68;;;4.65;;
36653;SDS011;22650;49.350;20.898;2023-04-06T09:02:36;11.43;;;5.63;;
36653;SDS011;22650;49.350;20.898;2023-04-06T09:05:13;9.38;;;4.88;;
36653;SDS011;22650;49.350;20.898;2023-04-06T09:07:47;13.30;;;4.70;;
36653;SDS011;22650;49.350;20.898;2023-04-06T09:10:21;11.30;;;5.45;;
36653;SDS011;22650;49.350;20.898;2023-04-06T09:13:04;8.57;;;4.15;;
36653;SDS011;22650;49.350;20.898;2023-04-06T09:15:38;11.70;;;4.85;;
36653;SDS011;22650;49.350;20.898;2023-04-06T09:18:11;10.18;;;5.07;;
36653;SDS011;22650;49.350;20.898;2023-04-06T09:20:45;12.07;;;6.05;;
36653;SDS011;22650;49.350;20.898;2023-04-06T09:23:29;12.50;;;5.22;;
36653;SDS011;22650;49.350;20.898;2023-04-06T09:26:04;12.00;;;5.03;;
36653;SDS011;22650;49.350;20.898;2023-04-06T09:28:46;11.55;;;4.82;;
36653;SDS011;22650;49.350;20.898;2023-04-06T09:31:22;8.88;;;4.60;;
36653;SDS011;22650;49.350;20.898;2023-04-06T09:33:57;9.15;;;5.22;;
36653;SDS011;22650;49.350;20.898;2023-04-06T09:36:30;13.02;;;5.72;;
36653;SDS011;22650;49.350;20.898;2023-04-06T09:39:04;14.15;;;5.75;;
36653;SDS011;22650;49.350;20.898;2023-04-06T09:41:39;12.25;;;5.82;;
36653;SDS011;22650;49.350;20.898;2023-04-06T09:44:14;8.13;;;4.90;;
36653;SDS011;22650;49.350;20.898;2023-04-06T09:46:47;13.27;;;6.97;;
36653;SDS011;22650;49.350;20.898;2023-04-06T09:49:31;10.68;;;5.80;;
36653;SDS011;22650;49.350;20.898;2023-04-06T09:52:07;15.18;;;6.88;;
36653;SDS011;22650;49.350;20.898;2023-04-06T09:54:44;11.02;;;5.43;;
36653;SDS011;22650;49.350;20.898;2023-04-06T09:57:24;11.88;;;6.07;;
36653;SDS011;22650;49.350;20.898;2023-04-06T10:00:04;12.55;;;6.00;;
36653;SDS011;22650;49.350;20.898;2023-04-06T10:02:44;9.77;;;5.45;;
36653;SDS011;22650;49.350;20.898;2023-04-06T10:05:27;11.40;;;5.90;;
36653;SDS011;22650;49.350;20.898;2023-04-06T10:08:08;12.60;;;6.53;;
36653;SDS011;22650;49.350;20.898;2023-04-06T10:10:42;10.23;;;6.22;;
36653;SDS011;22650;49.350;20.898;2023-04-06T10:13:16;10.65;;;5.65;;
36653;SDS011;22650;49.350;20.898;2023-04-06T10:15:53;12.93;;;5.97;;
36653;SDS011;22650;49.350;20.898;2023-04-06T10:18:27;12.40;;;6.38;;
36653;SDS011;22650;49.350;20.898;2023-04-06T10:21:04;11.15;;;5.40;;
36653;SDS011;22650;49.350;20.898;2023-04-06T10:23:43;11.65;;;5.00;;
36653;SDS011;22650;49.350;20.898;2023-04-06T10:26:20;11.73;;;5.53;;
36653;SDS011;22650;49.350;20.898;2023-04-06T10:28:54;12.32;;;5.43;;
36653;SDS011;22650;49.350;20.898;2023-04-06T10:31:39;14.02;;;6.18;;
36653;SDS011;22650;49.350;20.898;2023-04-06T10:34:16;8.07;;;4.80;;
36653;SDS011;22650;49.350;20.898;2023-04-06T10:36:49;10.85;;;5.47;;
36653;SDS011;22650;49.350;20.898;2023-04-06T10:39:24;9.80;;;5.50;;
36653;SDS011;22650;49.350;20.898;2023-04-06T10:42:05;10.75;;;5.68;;
36653;SDS011;22650;49.350;20.898;2023-04-06T10:44:42;10.05;;;4.82;;
36653;SDS011;22650;49.350;20.898;2023-04-06T10:47:17;14.07;;;6.82;;
36653;SDS011;22650;49.350;20.898;2023-04-06T10:49:51;9.43;;;5.25;;
36653;SDS011;22650;49.350;20.898;2023-04-06T10:52:25;10.40;;;6.45;;
36653;SDS011;22650;49.350;20.898;2023-04-06T10:54:58;10.77;;;5.72;;
36653;SDS011;22650;49.350;20.898;2023-04-06T10:57:32;9.73;;;5.25;;
36653;SDS011;22650;49.350;20.898;2023-04-06T11:00:08;9.73;;;4.97;;
36653;SDS011;22650;49.350;20.898;2023-04-06T11:02:45;11.75;;;5.07;;
36653;SDS011;22650;49.350;20.898;2023-04-06T11:05:20;10.57;;;4.82;;
36653;SDS011;22650;49.350;20.898;2023-04-06T11:07:55;14.13;;;6.13;;
36653;SDS011;22650;49.350;20.898;2023-04-06T11:10:29;11.27;;;5.07;;
36653;SDS011;22650;49.350;20.898;2023-04-06T11:13:03;14.05;;;6.18;;
36653;SDS011;22650;49.350;20.898;2023-04-06T11:15:37;12.45;;;5.30;;
36653;SDS011;22650;49.350;20.898;2023-04-06T11:18:12;9.88;;;5.82;;
36653;SDS011;22650;49.350;20.898;2023-04-06T11:20:50;13.35;;;5.25;;
36653;SDS011;22650;49.350;20.898;2023-04-06T11:23:23;12.75;;;4.82;;
36653;SDS011;22650;49.350;20.898;2023-04-06T11:25:57;12.15;;;5.55;;
36653;SDS011;22650;49.350;20.898;2023-04-06T11:28:31;13.27;;;6.03;;
36653;SDS011;22650;49.350;20.898;2023-04-06T11:31:05;10.13;;;5.22;;
36653;SDS011;22650;49.350;20.898;2023-04-06T11:33:40;14.20;;;5.82;;
36653;SDS011;22650;49.350;20.898;2023-04-06T11:36:14;11.75;;;5.72;;
36653;SDS011;22650;49.350;20.898;2023-04-06T11:38:48;11.43;;;6.05;;
36653;SDS011;22650;49.350;20.898;2023-04-06T11:41:23;10.75;;;5.15;;
36653;SDS011;22650;49.350;20.898;2023-04-06T11:44:01;10.48;;;6.43;;
36653;SDS011;22650;49.350;20.898;2023-04-06T11:46:35;11.82;;;4.85;;
36653;SDS011;22650;49.350;20.898;2023-04-06T11:49:10;9.82;;;5.05;;
36653;SDS011;22650;49.350;20.898;2023-04-06T11:51:49;10.30;;;5.47;;
36653;SDS011;22650;49.350;20.898;2023-04-06T11:54:30;11.30;;;5.60;;
36653;SDS011;22650;49.350;20.898;2023-04-06T11:57:04;10.10;;;5.68;;
36653;SDS011;22650;49.350;20.898;2023-04-06T11:59:38;11.02;;;5.60;;
36653;SDS011;22650;49.350;20.898;2023-04-06T12:02:12;10.70;;;5.80;;
36653;SDS011;22650;49.350;20.898;2023-04-06T12:04:47;11.32;;;6.00;;
36653;SDS011;22650;49.350;20.898;2023-04-06T12:07:21;12.05;;;5.90;;
36653;SDS011;22650;49.350;20.898;2023-04-06T12:09:54;11.35;;;5.13;;
36653;SDS011;22650;49.350;20.898;2023-04-06T12:12:28;14.10;;;4.72;;
36653;SDS011;22650;49.350;20.898;2023-04-06T12:15:02;11.55;;;4.88;;
36653;SDS011;22650;49.350;20.898;2023-04-06T12:17:37;12.07;;;5.75;;
36653;SDS011;22650;49.350;20.898;2023-04-06T12:20:12;16.50;;;6.15;;
36653;SDS011;22650;49.350;20.898;2023-04-06T12:22:57;9.05;;;5.32;;
36653;SDS011;22650;49.350;20.898;2023-04-06T12:25:31;10.70;;;5.25;;
36653;SDS011;22650;49.350;20.898;2023-04-06T12:28:05;12.02;;;5.22;;
36653;SDS011;22650;49.350;20.898;2023-04-06T12:38:40;8.65;;;5.13;;
36653;SDS011;22650;49.350;20.898;2023-04-06T12:41:16;9.13;;;4.78;;
36653;SDS011;22650;49.350;20.898;2023-04-06T12:43:50;9.57;;;5.10;;
36653;SDS011;22650;49.350;20.898;2023-04-06T12:46:24;11.73;;;5.03;;
36653;SDS011;22650;49.350;20.898;2023-04-06T12:48:57;9.95;;;4.70;;
36653;SDS011;22650;49.350;20.898;2023-04-06T12:51:32;9.20;;;4.93;;
36653;SDS011;22650;49.350;20.898;2023-04-06T12:54:07;11.98;;;4.85;;
36653;SDS011;22650;49.350;20.898;2023-04-06T12:56:42;7.55;;;4.93;;
36653;SDS011;22650;49.350;20.898;2023-04-06T12:59:16;9.80;;;5.97;;
36653;SDS011;22650;49.350;20.898;2023-04-06T13:01:50;10.55;;;5.03;;
36653;SDS011;22650;49.350;20.898;2023-04-06T13:04:24;10.80;;;5.00;;
36653;SDS011;22650;49.350;20.898;2023-04-06T13:06:58;13.48;;;6.38;;
36653;SDS011;22650;49.350;20.898;2023-04-06T13:09:33;14.45;;;7.13;;
36653;SDS011;22650;49.350;20.898;2023-04-06T13:12:06;10.02;;;5.05;;
36653;SDS011;22650;49.350;20.898;2023-04-06T13:14:40;13.73;;;5.15;;
36653;SDS011;22650;49.350;20.898;2023-04-06T13:17:14;12.82;;;5.25;;
36653;SDS011;22650;49.350;20.898;2023-04-06T13:19:48;15.45;;;5.75;;
36653;SDS011;22650;49.350;20.898;2023-04-06T13:22:22;14.32;;;5.95;;
36653;SDS011;22650;49.350;20.898;2023-04-06T13:24:57;10.18;;;5.57;;
36653;SDS011;22650;49.350;20.898;2023-04-06T13:27:30;6.82;;;4.50;;
36653;SDS011;22650;49.350;20.898;2023-04-06T13:30:06;9.85;;;4.90;;
36653;SDS011;22650;49.350;20.898;2023-04-06T13:32:41;7.05;;;4.45;;
36653;SDS011;22650;49.350;20.898;2023-04-06T13:35:15;11.77;;;5.47;;
36653;SDS011;22650;49.350;20.898;2023-04-06T13:37:49;7.97;;;4.30;;
36653;SDS011;22650;49.350;20.898;2023-04-06T13:40:25;9.27;;;5.55;;
36653;SDS011;22650;49.350;20.898;2023-04-06T13:43:01;9.27;;;5.05;;
36653;SDS011;22650;49.350;20.898;2023-04-06T13:45:35;8.68;;;4.65;;
36653;SDS011;22650;49.350;20.898;2023-04-06T13:48:09;9.25;;;5.28;;
36653;SDS011;22650;49.350;20.898;2023-04-06T13:50:43;10.13;;;5.03;;
36653;SDS011;22650;49.350;20.898;2023-04-06T13:53:17;14.65;;;5.10;;
36653;SDS011;22650;49.350;20.898;2023-04-06T13:55:55;6.47;;;4.10;;
36653;SDS011;22650;49.350;20.898;2023-04-06T13:58:29;6.63;;;3.83;;
36653;SDS011;22650;49.350;20.898;2023-04-06T14:01:03;8.57;;;4.28;;
36653;SDS011;22650;49.350;20.898;2023-04-06T14:03:38;11.30;;;4.93;;
36653;SDS011;22650;49.350;20.898;2023-04-06T14:06:14;9.00;;;4.18;;
36653;SDS011;22650;49.350;20.898;2023-04-06T14:08:50;13.27;;;4.82;;
36653;SDS011;22650;49.350;20.898;2023-04-06T14:11:25;12.20;;;4.97;;
36653;SDS011;22650;49.350;20.898;2023-04-06T14:13:59;8.07;;;4.68;;
36653;SDS011;22650;49.350;20.898;2023-04-06T14:16:33;11.52;;;4.68;;
36653;SDS011;22650;49.350;20.898;2023-04-06T14:19:07;6.82;;;3.92;;
36653;SDS011;22650;49.350;20.898;2023-04-06T14:21:41;15.10;;;5.13;;
36653;SDS011;22650;49.350;20.898;2023-04-06T14:24:15;9.52;;;4.35;;
36653;SDS011;22650;49.350;20.898;2023-04-06T14:26:50;8.10;;;4.13;;
36653;SDS011;22650;49.350;20.898;2023-04-06T14:29:24;7.75;;;4.38;;
36653;SDS011;22650;49.350;20.898;2023-04-06T14:31:57;10.05;;;4.53;;
36653;SDS011;22650;49.350;20.898;2023-04-06T14:34:32;7.93;;;4.35;;
36653;SDS011;22650;49.350;20.898;2023-04-06T14:37:06;14.10;;;5.40;;
36653;SDS011;22650;49.350;20.898;2023-04-06T14:39:39;8.23;;;4.55;;
36653;SDS011;22650;49.350;20.898;2023-04-06T14:42:15;8.68;;;4.60;;
36653;SDS011;22650;49.350;20.898;2023-04-06T14:44:48;10.90;;;6.65;;
36653;SDS011;22650;49.350;20.898;2023-04-06T14:47:22;16.25;;;5.30;;
36653;SDS011;22650;49.350;20.898;2023-04-06T14:49:56;20.52;;;5.32;;
36653;SDS011;22650;49.350;20.898;2023-04-06T14:52:29;8.82;;;4.25;;
36653;SDS011;22650;49.350;20.898;2023-04-06T14:55:03;12.82;;;5.65;;
36653;SDS011;22650;49.350;20.898;2023-04-06T14:57:39;10.88;;;4.78;;
36653;SDS011;22650;49.350;20.898;2023-04-06T15:00:12;8.48;;;4.93;;
36653;SDS011;22650;49.350;20.898;2023-04-06T15:02:47;11.13;;;5.00;;
36653;SDS011;22650;49.350;20.898;2023-04-06T15:05:21;9.93;;;5.57;;
36653;SDS011;22650;49.350;20.898;2023-04-06T15:07:54;14.43;;;6.03;;
36653;SDS011;22650;49.350;20.898;2023-04-06T15:10:28;8.38;;;4.65;;
36653;SDS011;22650;49.350;20.898;2023-04-06T15:13:05;9.23;;;5.07;;
36653;SDS011;22650;49.350;20.898;2023-04-06T15:15:40;10.07;;;6.13;;
36653;SDS011;22650;49.350;20.898;2023-04-06T15:18:15;10.23;;;4.25;;
36653;SDS011;22650;49.350;20.898;2023-04-06T15:20:49;10.45;;;5.65;;
36653;SDS011;22650;49.350;20.898;2023-04-06T15:23:24;12.90;;;5.63;;
36653;SDS011;22650;49.350;20.898;2023-04-06T15:26:02;11.75;;;5.20;;